Appledore, United Kingdom
Current Conditions -  °F | °C
As of 8:20 PM on Wednesday 28 Jan 2015 (Local Time) from EGTE Reporting Station
Rain Showers Rain Showers  
Wind Chill: 37°   Ceiling: Unl
Heat Index: 37°   Visibility: 6mi
Dew Point: 32°   Wind: 3mph
Humidity: 81%   Direction: NA
Pressure: 29.71"   Gusts: NA
Location:  51.05°N, 4.2°W
Report Text: EGTE 282020Z VRB03KT 9999 -SHRA SCT024 03/M00 Q1006
Loading
Personal Weather Stations






























Interactive Weather Map New forecast layout! Learn more

10-Day Weather Forecast

Advertisements
Track Severe Weather on mobile